Decatur Airport
KDEC : now visible

Airfield :











YOU CAN JOIN US ON...

 
LOGIN :

Register | Disclaimer

   EN    FR    IT 

 









Legend :    VFR   Marginal VFR   IFR   Intensive IFR   Very Intensive IFR
Visi :
Ceiling :
>= 8 km
>= 3000ft
5 to 8 km
1000 to 3000 ft
1500m to 5 km
500 to 1000 ft
800 to 1500m
200 to 500 ft
< 800m
< 200 ft
Symbols :   Thunderstorms  Fog  Heavy snow  Heavy precipitations  Wind > 20 kt






- Airport Elevation : 682 ft
- IATA code : DEC


KDEC - Decatur

CURRENT METAR :
  • 261154Z 20010KT 5SM BR OVC004 17/17 A2993 RMK AO2 SLP132 T01720172 10178 20156 52005

EXPIRED METARs :
  • 261054Z 20009KT 4SM BR OVC003 17/17 A2993 RMK AO2 SLP130 T01720172
  • 260954Z AUTO 20008KT 5SM BR OVC002 17/17 A2992 RMK AO2 SLP127 T01670167
  • 260925Z AUTO 20009KT 3SM BR OVC002 17/17 A2992 RMK AO2 T01670167
  • 260854Z AUTO 20010KT 1 1/2SM BR OVC002 16/16 A2992 RMK AO2 SLP127 T01610161 55002

TAF KDEC
Valid from the 26 at 12:00 until the 27 at 12:00 UTC


261120Z 2612/2712 20009KT 4SM BR OVC003
FM261400 20010KT P6SM OVC006
FM261500 20011G21KT P6SM BKN030
FM261600 19012G23KT P6SM SCT150
FM262100 19017G25KT P6SM SKC
FM270900 21011KT P6SM SCT045 WS020/26035KT
KZKC FIR / North America



MET'MAP, your aeronautical weather chart ! - Copyright ORBIFLY December 2007 - Disclaimer

ORBIFLY MET'MAP TEAM :

Programming & Development : Alexandra Zaïnal
Concept & original design : Baudouin d'Aumeries
Assistance for programming : Marc-Olivier Méhu
Technical & hardware support : Manuel Goepfert

Contact : metmap@orbifly.com




SOURCES & CREDITS :

   NOAA       Earth
Advisory